Time;durP1;ratioP1;P1;durP2;ratioP2;P2;SDS_P1;SDS_P2;PMS_P1;PMS_P2;Temp;Humidity;BMP_temperature;BMP_pressure;BME280_temperature;BME280_humidity;BME280_pressure;Samples;Min_cycle;Max_cycle;Signal;HPM_P1;HPM_P2
2022/09/10 00:00:59;;;;;;;6.03;3.97;;;;;;;;;;4936676;29;20047;-78
2022/09/10 00:03:48;;;;;;;9.18;4.10;;;;;;;;;;4936795;29;20401;-79
2022/09/10 00:06:37;;;;;;;7.30;4.18;;;;;;;;;;4942642;29;20044;-78
2022/09/10 00:09:22;;;;;;;7.70;4.25;;;;;;;;;;4936723;29;20043;-78
2022/09/10 00:12:08;;;;;;;9.23;4.45;;;;;;;;;;4936712;29;20052;-77
2022/09/10 00:14:54;;;;;;;8.18;3.78;;;;;;;;;;4938379;29;20039;-77
2022/09/10 00:17:40;;;;;;;7.85;3.92;;;;;;;;;;4936608;29;20047;-78
2022/09/10 00:20:26;;;;;;;8.35;3.90;;;;;;;;;;4937567;29;20044;-77
2022/09/10 00:23:11;;;;;;;10.43;4.10;;;;;;;;;;4936901;29;20051;-78
2022/09/10 00:25:57;;;;;;;12.93;3.67;;;;;;;;;;4936564;29;20055;-77
2022/09/10 00:28:50;;;;;;;11.90;3.65;;;;;;;;;;4936728;29;20047;-76
2022/09/10 00:31:37;;;;;;;13.73;3.67;;;;;;;;;;4936443;29;20478;-77
2022/09/10 00:34:23;;;;;;;8.30;3.90;;;;;;;;;;4940407;29;20044;-77
2022/09/10 00:37:08;;;;;;;9.18;4.30;;;;;;;;;;4940409;29;20067;-79
2022/09/10 00:39:55;;;;;;;9.40;3.97;;;;;;;;;;4946917;29;20043;-77
2022/09/10 00:42:42;;;;;;;9.38;4.30;;;;;;;;;;4940502;29;20048;-77
2022/09/10 00:45:33;;;;;;;10.52;4.63;;;;;;;;;;4946946;29;20043;-77
2022/09/10 00:48:26;;;;;;;7.88;3.55;;;;;;;;;;4940500;29;20051;-77
2022/09/10 00:51:11;;;;;;;5.65;3.63;;;;;;;;;;4940214;29;20350;-78
2022/09/10 00:54:01;;;;;;;8.45;3.67;;;;;;;;;;4939822;29;20039;-79
2022/09/10 00:56:54;;;;;;;6.70;3.70;;;;;;;;;;4931966;29;20051;-79
2022/09/10 00:59:48;;;;;;;9.50;4.03;;;;;;;;;;4931445;29;20043;-77
2022/09/10 01:02:34;;;;;;;14.45;4.43;;;;;;;;;;4940939;29;20051;-78
2022/09/10 01:05:20;;;;;;;12.90;3.90;;;;;;;;;;4932421;29;20047;-77
2022/09/10 01:08:07;;;;;;;6.68;3.40;;;;;;;;;;4931846;29;20394;-80
2022/09/10 01:11:17;;;;;;;7.57;3.53;;;;;;;;;;4940281;29;20044;-79
2022/09/10 01:14:25;;;;;;;8.15;3.50;;;;;;;;;;4931700;29;20044;-79
2022/09/10 01:17:17;;;;;;;9.70;3.42;;;;;;;;;;4940439;29;20047;-82
2022/09/10 01:20:24;;;;;;;6.35;3.60;;;;;;;;;;4925313;29;20051;-81
2022/09/10 01:23:47;;;;;;;11.02;3.63;;;;;;;;;;4931628;29;20048;-81
2022/09/10 01:26:57;;;;;;;8.00;3.50;;;;;;;;;;4939795;29;20052;-80
2022/09/10 01:29:51;;;;;;;9.52;3.78;;;;;;;;;;4931445;29;20051;-81
2022/09/10 01:32:56;;;;;;;7.97;3.40;;;;;;;;;;4931458;29;20048;-82
2022/09/10 01:35:50;;;;;;;7.38;3.78;;;;;;;;;;4931707;29;20406;-82
2022/09/10 01:38:40;;;;;;;9.40;3.70;;;;;;;;;;4931435;29;20044;-81
2022/09/10 01:41:33;;;;;;;6.18;3.42;;;;;;;;;;4939747;29;20048;-80
2022/09/10 01:44:40;;;;;;;9.85;3.95;;;;;;;;;;4938164;29;20047;-81
2022/09/10 01:47:43;;;;;;;9.30;3.88;;;;;;;;;;4931220;29;20048;-78
2022/09/10 01:50:49;;;;;;;11.40;3.90;;;;;;;;;;4939183;29;20052;-81
2022/09/10 01:53:47;;;;;;;6.43;4.03;;;;;;;;;;4938520;29;20048;-80
2022/09/10 01:56:52;;;;;;;12.60;4.20;;;;;;;;;;4938809;29;20058;-80
2022/09/10 01:59:42;;;;;;;;;;;;;;;;;;4931076;29;20039;-80
2022/09/10 02:02:36;;;;;;;9.82;3.70;;;;;;;;;;4930806;29;19918;-80
2022/09/10 02:05:25;;;;;;;8.88;3.38;;;;;;;;;;4938729;29;20059;-80
2022/09/10 02:08:30;;;;;;;6.22;4.20;;;;;;;;;;4930818;29;20048;-81
2022/09/10 02:11:16;;;;;;;9.10;4.00;;;;;;;;;;4930641;29;20055;-81
2022/09/10 02:14:07;;;;;;;7.18;3.67;;;;;;;;;;4930844;29;20048;-81
2022/09/10 02:17:20;;;;;;;7.78;3.80;;;;;;;;;;4937747;29;20051;-79
2022/09/10 02:20:12;;;;;;;7.30;4.28;;;;;;;;;;4930740;29;20497;-79
2022/09/10 02:22:58;;;;;;;7.53;4.00;;;;;;;;;;4930354;29;20048;-80
2022/09/10 02:25:44;;;;;;;8.82;4.45;;;;;;;;;;4930334;29;20398;-80
2022/09/10 02:28:29;;;;;;;8.52;3.95;;;;;;;;;;4938547;29;20059;-79
2022/09/10 02:31:17;;;;;;;8.40;4.32;;;;;;;;;;4938195;29;20043;-80
2022/09/10 02:34:02;;;;;;;6.55;3.90;;;;;;;;;;4930250;29;20052;-79
2022/09/10 02:36:48;;;;;;;9.43;4.35;;;;;;;;;;4930165;29;20043;-80
2022/09/10 02:39:34;;;;;;;7.35;3.75;;;;;;;;;;4929848;29;20402;-80
2022/09/10 02:42:21;;;;;;;9.93;4.35;;;;;;;;;;4930351;29;20402;-80
2022/09/10 02:45:07;;;;;;;14.07;4.35;;;;;;;;;;4929929;29;20039;-80
2022/09/10 02:47:53;;;;;;;6.57;3.88;;;;;;;;;;4938066;29;20047;-80
2022/09/10 02:50:39;;;;;;;10.50;4.25;;;;;;;;;;4937998;29;20052;-80
2022/09/10 02:53:25;;;;;;;8.40;4.38;;;;;;;;;;4924420;29;20498;-80
2022/09/10 02:56:14;;;;;;;7.13;4.25;;;;;;;;;;4929526;29;20044;-81
2022/09/10 02:59:01;;;;;;;6.47;4.32;;;;;;;;;;4929653;29;20498;-81
2022/09/10 03:01:47;;;;;;;7.38;4.28;;;;;;;;;;4929638;29;20048;-81
2022/09/10 03:04:33;;;;;;;9.43;4.63;;;;;;;;;;4923598;29;20051;-81
2022/09/10 03:07:19;;;;;;;8.30;4.68;;;;;;;;;;4929493;29;20475;-81
2022/09/10 03:10:05;;;;;;;7.55;4.20;;;;;;;;;;4937376;29;20059;-81
2022/09/10 03:12:52;;;;;;;8.35;4.10;;;;;;;;;;4937545;29;20047;-81
2022/09/10 03:15:37;;;;;;;6.20;4.38;;;;;;;;;;4937523;29;20043;-81
2022/09/10 03:18:23;;;;;;;8.18;4.03;;;;;;;;;;4938242;29;20047;-81
2022/09/10 03:21:17;;;;;;;9.98;4.60;;;;;;;;;;4937095;29;20047;-79
2022/09/10 03:24:03;;;;;;;8.15;4.43;;;;;;;;;;4937190;29;20051;-80
2022/09/10 03:26:48;;;;;;;9.25;4.18;;;;;;;;;;4943353;29;20039;-79
2022/09/10 03:29:35;;;;;;;7.78;4.28;;;;;;;;;;4929016;29;20044;-80
2022/09/10 03:32:20;;;;;;;8.52;4.00;;;;;;;;;;4929270;29;20052;-79
2022/09/10 03:35:06;;;;;;;14.25;4.40;;;;;;;;;;4928848;29;20056;-80
2022/09/10 03:37:51;;;;;;;8.95;4.95;;;;;;;;;;4928884;29;20051;-80
2022/09/10 03:40:36;;;;;;;10.65;4.20;;;;;;;;;;4929269;29;20047;-80
2022/09/10 03:43:22;;;;;;;10.55;4.47;;;;;;;;;;4937304;29;20390;-80
2022/09/10 03:46:10;;;;;;;11.23;4.30;;;;;;;;;;4936828;29;20040;-80
2022/09/10 03:49:01;;;;;;;10.88;4.63;;;;;;;;;;4928703;29;20397;-80
2022/09/10 03:51:47;;;;;;;11.25;4.20;;;;;;;;;;4927666;29;20039;-80
2022/09/10 03:54:34;;;;;;;9.85;4.72;;;;;;;;;;4928738;29;20044;-80
2022/09/10 03:57:19;;;;;;;9.23;3.97;;;;;;;;;;4928872;29;20043;-80
2022/09/10 04:00:06;;;;;;;10.38;4.50;;;;;;;;;;4928354;29;20039;-79
2022/09/10 04:03:00;;;;;;;7.72;4.05;;;;;;;;;;4936304;29;20485;-79
2022/09/10 04:05:46;;;;;;;12.88;4.65;;;;;;;;;;4928724;29;20481;-79
2022/09/10 04:08:32;;;;;;;9.52;4.40;;;;;;;;;;4927950;29;20044;-79
2022/09/10 04:11:19;;;;;;;9.75;4.60;;;;;;;;;;4928795;29;20040;-79
2022/09/10 04:14:06;;;;;;;9.15;4.95;;;;;;;;;;4928551;29;20055;-79
2022/09/10 04:16:57;;;;;;;11.93;4.57;;;;;;;;;;4928466;29;20414;-79
2022/09/10 04:19:44;;;;;;;9.13;4.35;;;;;;;;;;4928548;29;20043;-78
2022/09/10 04:22:29;;;;;;;6.63;4.28;;;;;;;;;;4936289;29;20052;-78
2022/09/10 04:25:18;;;;;;;11.68;4.78;;;;;;;;;;4928637;29;20048;-80
2022/09/10 04:28:03;;;;;;;12.90;4.28;;;;;;;;;;4936537;29;20501;-80
2022/09/10 04:30:50;;;;;;;9.55;4.90;;;;;;;;;;4928386;29;20048;-78
2022/09/10 04:33:36;;;;;;;9.52;4.35;;;;;;;;;;4936330;29;20410;-79
2022/09/10 04:36:23;;;;;;;14.70;4.88;;;;;;;;;;4928216;29;20048;-78
2022/09/10 04:39:09;;;;;;;14.75;4.68;;;;;;;;;;4936112;29;20044;-79
2022/09/10 04:41:55;;;;;;;13.70;5.07;;;;;;;;;;4928032;29;20498;-79
2022/09/10 04:44:41;;;;;;;13.25;5.35;;;;;;;;;;4927876;29;20044;-79
2022/09/10 04:47:26;;;;;;;12.98;5.80;;;;;;;;;;4936236;29;20048;-79
2022/09/10 04:50:14;;;;;;;9.85;6.35;;;;;;;;;;4936122;29;20498;-78
2022/09/10 04:53:20;;;;;;;9.13;5.25;;;;;;;;;;4937023;29;20099;-80
2022/09/10 04:56:07;;;;;;;13.82;6.20;;;;;;;;;;4927939;29;20047;-80
2022/09/10 04:58:56;;;;;;;10.57;5.70;;;;;;;;;;4921308;29;20528;-80
2022/09/10 05:01:41;;;;;;;15.00;5.60;;;;;;;;;;4928190;29;20048;-79
2022/09/10 05:04:27;;;;;;;10.82;5.60;;;;;;;;;;4928209;29;20494;-79
2022/09/10 05:07:15;;;;;;;14.50;5.97;;;;;;;;;;4928030;29;20039;-79
2022/09/10 05:10:01;;;;;;;9.23;5.78;;;;;;;;;;4928214;29;20402;-79
2022/09/10 05:12:47;;;;;;;14.38;7.80;;;;;;;;;;4927408;29;20044;-80
2022/09/10 05:15:34;;;;;;;14.52;7.60;;;;;;;;;;4928168;29;20056;-79
2022/09/10 05:18:22;;;;;;;10.80;6.70;;;;;;;;;;4928940;29;20048;-79
2022/09/10 05:21:07;;;;;;;8.80;5.90;;;;;;;;;;4932199;29;20043;-79
2022/09/10 05:23:54;;;;;;;14.95;5.57;;;;;;;;;;4932435;29;20043;-82
2022/09/10 05:26:40;;;;;;;10.77;6.03;;;;;;;;;;4930995;29;20048;-79
2022/09/10 05:29:27;;;;;;;18.30;6.07;;;;;;;;;;4931074;29;20044;-80
2022/09/10 05:32:13;;;;;;;8.95;5.43;;;;;;;;;;4945522;29;20040;-80
2022/09/10 05:34:59;;;;;;;19.52;5.70;;;;;;;;;;4931152;29;20056;-80
2022/09/10 05:37:45;;;;;;;13.20;5.40;;;;;;;;;;4931531;29;20048;-80
2022/09/10 05:40:30;;;;;;;12.43;5.47;;;;;;;;;;4931012;29;20405;-80
2022/09/10 05:43:16;;;;;;;9.25;5.22;;;;;;;;;;4930986;29;20043;-80
2022/09/10 05:46:03;;;;;;;8.07;5.53;;;;;;;;;;4938767;29;20040;-80
2022/09/10 05:48:49;;;;;;;8.65;4.80;;;;;;;;;;4930713;29;20073;-79
2022/09/10 05:51:36;;;;;;;10.40;5.07;;;;;;;;;;4930466;29;20048;-79
2022/09/10 05:54:22;;;;;;;15.02;5.85;;;;;;;;;;4930870;29;20059;-80
2022/09/10 05:57:08;;;;;;;10.43;5.72;;;;;;;;;;4938809;29;20044;-80
2022/09/10 05:59:55;;;;;;;12.93;5.65;;;;;;;;;;4930493;29;20502;-81
2022/09/10 06:02:41;;;;;;;10.88;6.03;;;;;;;;;;4930561;29;20040;-80
2022/09/10 06:05:38;;;;;;;11.18;5.88;;;;;;;;;;4930842;29;20048;-80
2022/09/10 06:29:02;;;;;;;11.23;6.43;;;;;;;;;;6274077;21;1373676;-83
2022/09/10 06:31:49;;;;;;;13.80;6.18;;;;;;;;;;6326939;22;20025;-81
2022/09/10 06:34:39;;;;;;;10.38;7.20;;;;;;;;;;6305051;22;20014;-80
2022/09/10 06:37:25;;;;;;;8.70;6.75;;;;;;;;;;6325817;22;20022;-80
2022/09/10 06:40:12;;;;;;;16.02;5.75;;;;;;;;;;6327097;22;20019;-80
2022/09/10 06:43:00;;;;;;;10.48;6.05;;;;;;;;;;6326606;22;20046;-82
2022/09/10 06:46:14;;;;;;;10.43;5.43;;;;;;;;;;6326763;22;20015;-81
2022/09/10 06:49:10;;;;;;;12.13;6.25;;;;;;;;;;6326568;22;20435;-81
2022/09/10 06:51:56;;;;;;;8.00;5.97;;;;;;;;;;6304257;22;20011;-82
2022/09/10 06:54:50;;;;;;;11.82;6.25;;;;;;;;;;6326597;22;20015;-81
2022/09/10 06:57:51;;;;;;;9.20;6.13;;;;;;;;;;6308303;22;20428;-81
2022/09/10 07:00:38;;;;;;;11.38;6.72;;;;;;;;;;6327053;22;20019;-80
2022/09/10 07:03:24;;;;;;;13.00;7.32;;;;;;;;;;6304981;22;20015;-81
2022/09/10 07:06:12;;;;;;;11.23;6.85;;;;;;;;;;6325838;22;20045;-83
2022/09/10 07:08:58;;;;;;;12.43;6.00;;;;;;;;;;6304515;22;20022;-84
2022/09/10 07:11:46;;;;;;;14.80;7.22;;;;;;;;;;6325451;22;20015;-80
2022/09/10 07:14:34;;;;;;;10.93;7.57;;;;;;;;;;6326195;22;20431;-80
2022/09/10 07:17:23;;;;;;;12.63;8.60;;;;;;;;;;6304678;22;20011;-80
2022/09/10 07:20:09;;;;;;;13.23;8.55;;;;;;;;;;6325782;22;20011;-83
2022/09/10 07:23:03;;;;;;;13.07;6.53;;;;;;;;;;6306442;22;20019;-82
2022/09/10 07:26:10;;;;;;;13.77;7.43;;;;;;;;;;6325634;22;20018;-82
2022/09/10 07:29:50;;;;;;;10.18;6.60;;;;;;;;;;6310919;22;20023;-82
2022/09/10 07:32:51;;;;;;;11.43;6.18;;;;;;;;;;6289216;22;20019;-84
2022/09/10 07:35:41;;;;;;;10.98;6.05;;;;;;;;;;6298167;22;20015;-81
2022/09/10 07:47:12;;;;;;;15.73;7.55;;;;;;;;;;6319540;22;20019;-84
2022/09/10 07:50:01;;;;;;;12.02;7.57;;;;;;;;;;6297003;22;20015;-81
2022/09/10 07:52:48;;;;;;;10.45;7.32;;;;;;;;;;6297551;22;20015;-83
2022/09/10 07:55:33;;;;;;;7.63;4.32;;;;;;;;;;6318804;22;20347;-82
2022/09/10 07:58:19;;;;;;;6.95;3.97;;;;;;;;;;6318482;22;20011;-81
2022/09/10 08:01:11;;;;;;;6.68;3.80;;;;;;;;;;6296666;22;20015;-81
2022/09/10 08:04:36;;;;;;;5.88;3.67;;;;;;;;;;6316824;22;20019;-83
2022/09/10 08:07:23;;;;;;;6.70;3.90;;;;;;;;;;6296805;22;20338;-82
2022/09/10 08:10:09;;;;;;;5.90;3.60;;;;;;;;;;6318768;22;20019;-81
2022/09/10 08:12:56;;;;;;;8.43;4.00;;;;;;;;;;6318012;22;20020;-81
2022/09/10 08:15:46;;;;;;;7.60;4.30;;;;;;;;;;6295956;22;20351;-82
2022/09/10 08:18:34;;;;;;;12.52;4.35;;;;;;;;;;6296615;22;20011;-82
2022/09/10 08:21:20;;;;;;;11.30;4.32;;;;;;;;;;6317996;22;20015;-82
2022/09/10 08:24:07;;;;;;;8.65;4.10;;;;;;;;;;6318513;22;20023;-82
2022/09/10 08:26:53;;;;;;;10.88;4.07;;;;;;;;;;6319123;22;20015;-81
2022/09/10 08:29:38;;;;;;;6.55;4.10;;;;;;;;;;6319393;22;20023;-85
2022/09/10 08:32:27;;;;;;;10.80;4.68;;;;;;;;;;6323720;22;20019;-81
2022/09/10 08:35:13;;;;;;;8.70;5.30;;;;;;;;;;6319831;22;20019;-83
2022/09/10 08:37:59;;;;;;;10.15;5.35;;;;;;;;;;6320580;22;20019;-81
2022/09/10 08:40:45;;;;;;;10.48;5.60;;;;;;;;;;6318979;22;20411;-81
2022/09/10 08:43:41;;;;;;;7.70;5.40;;;;;;;;;;6317236;22;20019;-81
2022/09/10 08:46:34;;;;;;;11.13;6.15;;;;;;;;;;6318062;22;20015;-83
2022/09/10 08:49:52;;;;;;;9.95;5.03;;;;;;;;;;6318560;22;20015;-82
2022/09/10 08:52:48;;;;;;;9.20;4.32;;;;;;;;;;6320136;22;20015;-82
2022/09/10 08:55:48;;;;;;;9.00;4.97;;;;;;;;;;6318420;22;20015;-82
2022/09/10 08:58:44;;;;;;;10.57;4.57;;;;;;;;;;6317674;22;20459;-83
2022/09/10 09:01:48;;;;;;;15.40;5.22;;;;;;;;;;6318683;22;20011;-82
2022/09/10 09:05:21;;;;;;;8.57;4.30;;;;;;;;;;6318090;22;20011;-81
2022/09/10 09:08:13;;;;;;;12.80;4.43;;;;;;;;;;6291393;22;20023;-82
2022/09/10 09:11:05;;;;;;;8.88;5.80;;;;;;;;;;6318044;22;20015;-81
2022/09/10 09:14:09;;;;;;;11.95;5.35;;;;;;;;;;6318234;22;20015;-82
2022/09/10 09:16:59;;;;;;;9.98;4.68;;;;;;;;;;6317832;22;20439;-82
2022/09/10 09:19:55;;;;;;;9.85;4.78;;;;;;;;;;6317838;22;20027;-83
2022/09/10 09:22:44;;;;;;;;;;;;;;;;;;6319102;22;20011;-83
2022/09/10 09:25:49;;;;;;;9.65;4.60;;;;;;;;;;6317744;22;20316;-82
2022/09/10 09:28:55;;;;;;;14.98;5.03;;;;;;;;;;6317585;22;20015;-80
2022/09/10 09:31:46;;;;;;;10.38;4.65;;;;;;;;;;6317575;22;20015;-81
2022/09/10 09:35:01;;;;;;;10.13;4.13;;;;;;;;;;6296260;22;20019;-83
2022/09/10 09:37:47;;;;;;;8.40;4.53;;;;;;;;;;6298387;22;20019;-82
2022/09/10 09:40:42;;;;;;;10.60;4.40;;;;;;;;;;6296283;22;20019;-83
2022/09/10 09:43:51;;;;;;;8.27;4.40;;;;;;;;;;6317694;22;20351;-83
2022/09/10 09:46:37;;;;;;;9.93;4.38;;;;;;;;;;6317226;22;20019;-84
2022/09/10 09:49:25;;;;;;;8.80;4.05;;;;;;;;;;6317913;22;20343;-83
2022/09/10 09:52:21;;;;;;;11.48;4.43;;;;;;;;;;6317072;22;20015;-83
2022/09/10 09:55:18;;;;;;;6.68;4.00;;;;;;;;;;6319482;22;20023;-80
2022/09/10 09:58:25;;;;;;;8.70;3.97;;;;;;;;;;6319042;22;20015;-82
2022/09/10 10:01:14;;;;;;;7.45;3.63;;;;;;;;;;6322338;22;20339;-82
2022/09/10 10:04:01;;;;;;;7.40;4.40;;;;;;;;;;6322212;22;20014;-83
2022/09/10 10:07:13;;;;;;;11.50;4.05;;;;;;;;;;6317321;22;20018;-81
2022/09/10 10:10:00;;;;;;;9.45;4.25;;;;;;;;;;6320499;22;20011;-82
2022/09/10 10:12:49;;;;;;;10.02;3.60;;;;;;;;;;6296155;22;20019;-81
2022/09/10 10:15:37;;;;;;;12.77;3.90;;;;;;;;;;6274270;22;20331;-83
2022/09/10 10:18:30;;;;;;;11.18;3.83;;;;;;;;;;6318951;22;20015;-82
2022/09/10 10:21:21;;;;;;;9.02;4.13;;;;;;;;;;6316748;22;20023;-82
2022/09/10 10:24:30;;;;;;;8.70;4.40;;;;;;;;;;6296212;22;20331;-83
2022/09/10 10:27:31;;;;;;;6.47;3.40;;;;;;;;;;6317902;22;20023;-81
2022/09/10 10:30:17;;;;;;;9.50;4.15;;;;;;;;;;6318273;22;20023;-80
2022/09/10 10:33:02;;;;;;;7.63;3.65;;;;;;;;;;6318805;22;20011;-81
2022/09/10 10:36:15;;;;;;;7.18;4.05;;;;;;;;;;6316780;22;20011;-84
2022/09/10 10:39:26;;;;;;;12.07;3.92;;;;;;;;;;6295283;22;20015;-83
2022/09/10 10:42:27;;;;;;;8.88;3.70;;;;;;;;;;6316919;22;20011;-83
2022/09/10 10:45:35;;;;;;;15.88;3.50;;;;;;;;;;6319140;22;20019;-83
2022/09/10 10:48:50;;;;;;;7.97;3.50;;;;;;;;;;6294967;22;20018;-82
2022/09/10 10:51:35;;;;;;;8.20;4.00;;;;;;;;;;6301179;22;20015;-82
2022/09/10 10:55:05;;;;;;;6.63;3.35;;;;;;;;;;6317460;22;20019;-84
2022/09/10 10:58:15;;;;;;;8.07;4.03;;;;;;;;;;6269879;22;20015;-81
2022/09/10 11:01:19;;;;;;;8.90;3.53;;;;;;;;;;6319259;22;20019;-81
2022/09/10 11:04:39;;;;;;;9.48;3.45;;;;;;;;;;6317741;22;20011;-81
2022/09/10 11:07:39;;;;;;;6.20;2.90;;;;;;;;;;6319762;22;20019;-81
2022/09/10 11:10:31;;;;;;;8.82;3.25;;;;;;;;;;6320231;22;20428;-84
2022/09/10 11:13:56;;;;;;;11.82;8.05;;;;;;;;;;6320844;22;20019;-81
2022/09/10 11:16:55;;;;;;;6.27;3.10;;;;;;;;;;6319675;22;20336;-81
2022/09/10 11:19:52;;;;;;;5.45;2.70;;;;;;;;;;6319852;22;20012;-83
2022/09/10 11:22:52;;;;;;;8.35;3.17;;;;;;;;;;6319607;22;20019;-84
2022/09/10 11:26:18;;;;;;;7.70;2.90;;;;;;;;;;6319663;22;20023;-82
2022/09/10 11:29:30;;;;;;;6.88;2.67;;;;;;;;;;6284613;22;20019;-83
2022/09/10 11:32:39;;;;;;;12.25;3.92;;;;;;;;;;6320517;22;20019;-84
2022/09/10 11:35:30;;;;;;;4.28;2.35;;;;;;;;;;6321295;22;20328;-82
2022/09/10 11:38:26;;;;;;;9.90;4.85;;;;;;;;;;6320476;22;20011;-83
2022/09/10 11:41:27;;;;;;;6.55;2.88;;;;;;;;;;6319074;22;20019;-83
2022/09/10 11:44:27;;;;;;;7.35;3.50;;;;;;;;;;6318839;22;20011;-81
2022/09/10 11:47:29;;;;;;;7.78;3.40;;;;;;;;;;6320129;22;20019;-82
2022/09/10 11:50:28;;;;;;;9.48;2.85;;;;;;;;;;6320190;22;20019;-83
2022/09/10 11:53:16;;;;;;;7.05;2.40;;;;;;;;;;6319515;22;20019;-82
2022/09/10 11:56:24;;;;;;;6.30;3.03;;;;;;;;;;6296813;22;20015;-82
2022/09/10 11:59:43;;;;;;;8.43;2.95;;;;;;;;;;6318391;22;20011;-83
2022/09/10 12:02:53;;;;;;;8.60;2.80;;;;;;;;;;6318681;22;20015;-82
2022/09/10 12:06:05;;;;;;;4.65;2.20;;;;;;;;;;6319416;22;20011;-81
2022/09/10 12:09:04;;;;;;;7.45;2.50;;;;;;;;;;6319826;22;20011;-82
2022/09/10 12:12:04;;;;;;;5.90;2.47;;;;;;;;;;6319914;22;20019;-82
2022/09/10 12:14:50;;;;;;;7.70;2.88;;;;;;;;;;6319403;22;20015;-82
2022/09/10 12:17:40;;;;;;;7.07;2.60;;;;;;;;;;6319771;22;20019;-81
2022/09/10 12:20:31;;;;;;;7.22;2.50;;;;;;;;;;6296314;22;20015;-81
2022/09/10 12:23:30;;;;;;;7.68;2.75;;;;;;;;;;6319701;22;20027;-82
2022/09/10 12:26:19;;;;;;;6.68;2.65;;;;;;;;;;6319245;22;20015;-82
2022/09/10 12:29:06;;;;;;;13.23;4.07;;;;;;;;;;6318296;22;20015;-82
2022/09/10 12:32:13;;;;;;;7.35;3.30;;;;;;;;;;6320366;22;20443;-84
2022/09/10 12:35:30;;;;;;;12.27;6.00;;;;;;;;;;6319805;22;20015;-81
2022/09/10 12:38:43;;;;;;;11.73;6.07;;;;;;;;;;6319746;22;20023;-84
2022/09/10 12:41:29;;;;;;;16.13;6.35;;;;;;;;;;6318943;22;20011;-84
2022/09/10 12:44:33;;;;;;;9.82;6.15;;;;;;;;;;6319710;22;20011;-81
2022/09/10 12:47:31;;;;;;;9.25;6.10;;;;;;;;;;6319253;22;20019;-83
2022/09/10 12:50:30;;;;;;;10.95;6.57;;;;;;;;;;6319897;22;20015;-84
2022/09/10 12:53:47;;;;;;;25.90;11.60;;;;;;;;;;6318824;22;20012;-80
2022/09/10 12:57:15;;;;;;;15.50;8.52;;;;;;;;;;6291633;22;20019;-81
2022/09/10 13:00:56;;;;;;;14.10;7.75;;;;;;;;;;6318890;22;20023;-80
2022/09/10 13:03:55;;;;;;;18.38;9.65;;;;;;;;;;6230148;22;20457;-80
2022/09/10 13:06:42;;;;;;;12.70;6.40;;;;;;;;;;6319492;22;20015;-80
2022/09/10 13:09:35;;;;;;;8.02;6.00;;;;;;;;;;6318361;22;20019;-78
2022/09/10 13:12:23;;;;;;;11.75;6.30;;;;;;;;;;6318691;22;20015;-82
2022/09/10 13:15:18;;;;;;;9.82;6.38;;;;;;;;;;6319227;22;20019;-85
2022/09/10 13:18:22;;;;;;;9.52;6.30;;;;;;;;;;6317425;22;20023;-80
2022/09/10 13:21:23;;;;;;;11.57;6.50;;;;;;;;;;6317321;22;20053;-80
2022/09/10 13:24:34;;;;;;;8.75;5.78;;;;;;;;;;6318433;22;20011;-81
2022/09/10 13:27:40;;;;;;;9.88;6.35;;;;;;;;;;6318423;22;20011;-79
2022/09/10 13:30:27;;;;;;;9.20;6.03;;;;;;;;;;6318353;22;20444;-77
2022/09/10 13:33:16;;;;;;;8.75;6.75;;;;;;;;;;6317674;22;20023;-80
2022/09/10 13:36:01;;;;;;;10.02;5.85;;;;;;;;;;6317357;22;20015;-80
2022/09/10 13:38:59;;;;;;;12.45;6.80;;;;;;;;;;6316423;22;20015;-81
2022/09/10 13:41:50;;;;;;;13.65;7.88;;;;;;;;;;6316383;22;20019;-81
2022/09/10 13:45:18;;;;;;;8.55;6.57;;;;;;;;;;6317751;22;20015;-81
2022/09/10 13:48:33;;;;;;;16.23;9.30;;;;;;;;;;6318160;22;20016;-84
2022/09/10 13:51:38;;;;;;;10.13;7.60;;;;;;;;;;6318051;22;20015;-82
2022/09/10 13:54:40;;;;;;;11.32;5.70;;;;;;;;;;6318878;22;20435;-81
2022/09/10 13:57:31;;;;;;;10.20;6.75;;;;;;;;;;6318446;22;20019;-80
2022/09/10 14:00:19;;;;;;;12.00;6.88;;;;;;;;;;6295705;22;20023;-80
2022/09/10 14:03:15;;;;;;;11.30;8.00;;;;;;;;;;6318763;22;20011;-83
2022/09/10 14:06:08;;;;;;;14.32;6.97;;;;;;;;;;6318418;22;20435;-80
2022/09/10 14:09:03;;;;;;;13.10;7.70;;;;;;;;;;6319799;22;20011;-84
2022/09/10 14:11:48;;;;;;;;;;;;;;;;;;6318604;22;20016;-84
2022/09/10 14:14:41;;;;;;;16.67;11.23;;;;;;;;;;6296359;22;20315;-79
2022/09/10 14:17:35;;;;;;;13.13;7.97;;;;;;;;;;6319469;22;20019;-80
2022/09/10 14:20:25;;;;;;;;;;;;;;;;;;6319339;22;20019;-83
2022/09/10 14:23:15;;;;;;;11.18;8.32;;;;;;;;;;6319170;22;19906;-81
2022/09/10 14:26:10;;;;;;;12.38;7.55;;;;;;;;;;6318729;22;20015;-81
2022/09/10 14:28:58;;;;;;;12.77;8.65;;;;;;;;;;6317890;22;20019;-81
2022/09/10 14:31:43;;;;;;;13.60;8.02;;;;;;;;;;6307421;22;20015;-82
2022/09/10 14:34:35;;;;;;;9.68;7.10;;;;;;;;;;6321785;22;20019;-81
2022/09/10 14:37:27;;;;;;;15.10;8.30;;;;;;;;;;6320715;22;20019;-82
2022/09/10 14:40:20;;;;;;;11.70;7.47;;;;;;;;;;6324370;22;20020;-82
2022/09/10 14:43:26;;;;;;;15.18;10.07;;;;;;;;;;6321211;22;20023;-82
2022/09/10 14:46:33;;;;;;;16.60;8.35;;;;;;;;;;6319245;22;20011;-82
2022/09/10 14:49:33;;;;;;;10.80;7.57;;;;;;;;;;6319691;22;20015;-82
2022/09/10 14:52:22;;;;;;;11.65;7.88;;;;;;;;;;6320951;22;20440;-82
2022/09/10 14:55:07;;;;;;;10.65;8.35;;;;;;;;;;6296915;22;20019;-86
2022/09/10 14:57:54;;;;;;;12.70;8.70;;;;;;;;;;6320353;22;20023;-82
2022/09/10 15:00:39;;;;;;;14.15;8.20;;;;;;;;;;6297135;22;20015;-85
2022/09/10 15:03:25;;;;;;;7.50;6.38;;;;;;;;;;6320837;22;20420;-83
2022/09/10 15:06:10;;;;;;;10.80;5.97;;;;;;;;;;6319772;22;20015;-82
2022/09/10 15:08:56;;;;;;;8.90;6.25;;;;;;;;;;6319949;22;20011;-82
2022/09/10 15:11:53;;;;;;;7.15;5.50;;;;;;;;;;6319467;22;20019;-82
2022/09/10 15:14:38;;;;;;;9.18;5.82;;;;;;;;;;6320220;22;20019;-82
2022/09/10 15:17:25;;;;;;;10.52;5.97;;;;;;;;;;6320197;22;20015;-82
2022/09/10 15:20:17;;;;;;;9.70;6.10;;;;;;;;;;6297445;22;20015;-83
2022/09/10 15:23:02;;;;;;;6.65;5.10;;;;;;;;;;6320229;22;20019;-82
2022/09/10 15:25:51;;;;;;;8.20;6.40;;;;;;;;;;6320338;22;20340;-83
2022/09/10 15:28:35;;;;;;;12.95;6.55;;;;;;;;;;6275084;22;20019;-85
2022/09/10 15:31:22;;;;;;;17.77;8.45;;;;;;;;;;6311583;22;20023;-83
2022/09/10 15:34:08;;;;;;;9.68;7.13;;;;;;;;;;6320363;22;20019;-84
2022/09/10 15:36:54;;;;;;;9.23;5.47;;;;;;;;;;6318492;22;20023;-82
2022/09/10 15:39:39;;;;;;;9.02;5.70;;;;;;;;;;6319387;22;20423;-84
2022/09/10 15:42:24;;;;;;;9.88;6.10;;;;;;;;;;6318645;22;20015;-83
2022/09/10 15:45:11;;;;;;;6.43;5.70;;;;;;;;;;6318544;22;20015;-83
2022/09/10 15:47:55;;;;;;;6.90;4.50;;;;;;;;;;6318607;22;20019;-82
2022/09/10 15:50:42;;;;;;;7.53;3.95;;;;;;;;;;6318691;22;20019;-81
2022/09/10 15:53:35;;;;;;;5.07;3.55;;;;;;;;;;6318453;22;20023;-84
2022/09/10 15:56:25;;;;;;;3.25;2.90;;;;;;;;;;6295385;22;20340;-83
2022/09/10 15:59:10;;;;;;;7.82;3.88;;;;;;;;;;6317016;22;20443;-86
2022/09/10 16:01:59;;;;;;;7.30;4.55;;;;;;;;;;6318508;22;20019;-86
2022/09/10 16:04:47;;;;;;;6.07;3.92;;;;;;;;;;6318241;22;20020;-82
2022/09/10 16:07:31;;;;;;;9.55;3.75;;;;;;;;;;6318967;22;20019;-84
2022/09/10 16:10:43;;;;;;;8.75;3.47;;;;;;;;;;6318297;22;20016;-85
2022/09/10 16:13:58;;;;;;;8.82;3.00;;;;;;;;;;6295265;22;20023;-85
2022/09/10 16:16:46;;;;;;;10.48;3.22;;;;;;;;;;6319043;22;20015;-84
2022/09/10 16:19:32;;;;;;;5.38;3.35;;;;;;;;;;6316797;22;20023;-83
2022/09/10 16:22:17;;;;;;;4.43;3.00;;;;;;;;;;6296314;22;20019;-83
2022/09/10 16:25:07;;;;;;;5.53;2.92;;;;;;;;;;6317968;22;20015;-85
2022/09/10 16:27:52;;;;;;;9.23;2.83;;;;;;;;;;6318387;22;20332;-83
2022/09/10 16:30:37;;;;;;;9.82;4.00;;;;;;;;;;6314044;22;20015;-83
2022/09/10 16:33:26;;;;;;;6.75;3.92;;;;;;;;;;6317839;22;20016;-84
2022/09/10 16:36:13;;;;;;;8.32;5.65;;;;;;;;;;6318325;22;20015;-84
2022/09/10 16:39:04;;;;;;;9.27;4.90;;;;;;;;;;6318489;22;20023;-84
2022/09/10 16:41:52;;;;;;;9.85;4.55;;;;;;;;;;6318616;22;20027;-85
2022/09/10 16:44:40;;;;;;;8.23;3.00;;;;;;;;;;6296672;22;20019;-82
2022/09/10 16:47:25;;;;;;;4.95;3.25;;;;;;;;;;6318999;22;20019;-86
2022/09/10 16:50:10;;;;;;;13.13;3.10;;;;;;;;;;6274180;22;20019;-82
2022/09/10 16:52:56;;;;;;;5.03;3.10;;;;;;;;;;6318291;22;20015;-83
2022/09/10 16:55:51;;;;;;;10.45;3.47;;;;;;;;;;6318865;22;20011;-84
2022/09/10 16:58:37;;;;;;;;;;;;;;;;;;6275565;22;20023;-83
2022/09/10 17:01:22;;;;;;;8.15;4.15;;;;;;;;;;6295358;22;19907;-83
2022/09/10 17:04:09;;;;;;;7.60;4.80;;;;;;;;;;6295789;22;20019;-84
2022/09/10 17:06:56;;;;;;;9.32;4.10;;;;;;;;;;6318646;22;20019;-83
2022/09/10 17:09:41;;;;;;;6.03;4.30;;;;;;;;;;6295954;22;20019;-83
2022/09/10 17:12:29;;;;;;;40.92;14.50;;;;;;;;;;6319082;22;20015;-82
2022/09/10 17:15:15;;;;;;;36.65;17.58;;;;;;;;;;6318929;22;20424;-83
2022/09/10 17:18:00;;;;;;;23.02;9.85;;;;;;;;;;6294321;22;20020;-84
2022/09/10 17:20:47;;;;;;;11.40;5.57;;;;;;;;;;6294652;22;20019;-84
2022/09/10 17:23:32;;;;;;;25.60;12.45;;;;;;;;;;6318907;22;20015;-82
2022/09/10 17:26:18;;;;;;;10.98;5.10;;;;;;;;;;6295689;22;20023;-81
2022/09/10 17:29:07;;;;;;;10.43;5.93;;;;;;;;;;6317259;22;20015;-82
2022/09/10 17:31:54;;;;;;;12.57;6.40;;;;;;;;;;6318888;22;20019;-83
2022/09/10 17:34:40;;;;;;;16.50;6.80;;;;;;;;;;6318846;22;20019;-83
2022/09/10 17:37:26;;;;;;;7.70;5.53;;;;;;;;;;6320019;22;20023;-82
2022/09/10 17:40:12;;;;;;;10.23;5.53;;;;;;;;;;6322541;22;20019;-83